Terminal Aerodrome Forecast
Issued by NWS

Home | Current Version | Previous Version | Text Only | Print | Product List | Glossary On
Versions: 1 2 3 4 5 6 7 8 9 10 11 12 13 14 15 16 17 18 19 20
000
FTUS43 KAPX 301720
TAFTVC
TAF
KTVC 301720Z 3018/3118 27010G18KT P6SM SCT050
     FM310100 VRB03KT P6SM SKC
     FM311400 03005KT P6SM FEW060 SCT120=

USA.gov is the U.S. government's official web portal to all federal, state and local government web resources and services.